Time;durP1;ratioP1;P1;durP2;ratioP2;P2;SDS_P1;SDS_P2;PMS_P1;PMS_P2;Temp;Humidity;BMP_temperature;BMP_pressure;BME280_temperature;BME280_humidity;BME280_pressure;Samples;Min_cycle;Max_cycle;Signal;HPM_P1;HPM_P2
2021/01/26 00:01:34;;;;;;;51.60;41.90;;;;;;;;;;5054358;28;20479;-67
2021/01/26 00:04:00;;;;;;;50.53;43.40;;;;;;;;;;5049761;28;20851;-67
2021/01/26 00:06:27;;;;;;;45.10;39.67;;;;;;;;;;5035395;28;20456;-66
2021/01/26 00:08:53;;;;;;;49.87;42.30;;;;;;;;;;5037838;28;20514;-67
2021/01/26 00:11:20;;;;;;;50.57;41.67;;;;;;;;;;5055151;28;20448;-67
2021/01/26 00:13:47;;;;;;;53.53;41.40;;;;;;;;;;5055018;28;20470;-68
2021/01/26 00:16:14;;;;;;;48.47;41.20;;;;;;;;;;5055181;28;20478;-66
2021/01/26 00:18:41;;;;;;;51.97;42.23;;;;;;;;;;5043993;28;20457;-67
2021/01/26 00:21:07;;;;;;;53.97;41.70;;;;;;;;;;5037064;28;20843;-66
2021/01/26 00:23:34;;;;;;;50.63;42.23;;;;;;;;;;5054168;28;20483;-66
2021/01/26 00:26:00;;;;;;;59.07;45.63;;;;;;;;;;5051510;28;20981;-66
2021/01/26 00:28:27;;;;;;;54.73;43.00;;;;;;;;;;5052795;28;20448;-66
2021/01/26 00:30:54;;;;;;;57.13;46.10;;;;;;;;;;5042649;28;20478;-66
2021/01/26 00:33:22;;;;;;;59.07;46.87;;;;;;;;;;5052660;28;20478;-67
2021/01/26 00:35:50;;;;;;;59.03;47.47;;;;;;;;;;5035321;28;20530;-67
2021/01/26 00:38:16;;;;;;;56.30;45.13;;;;;;;;;;5032708;28;20823;-66
2021/01/26 00:40:43;;;;;;;59.27;46.13;;;;;;;;;;5049250;28;20983;-66
2021/01/26 00:43:10;;;;;;;52.83;44.33;;;;;;;;;;5051951;28;20475;-66
2021/01/26 00:45:37;;;;;;;52.87;44.87;;;;;;;;;;5051378;28;20470;-66
2021/01/26 00:48:04;;;;;;;56.30;49.43;;;;;;;;;;5052246;28;20819;-66
2021/01/26 00:50:32;;;;;;;58.03;47.53;;;;;;;;;;5046387;28;20793;-66
2021/01/26 00:52:59;;;;;;;63.37;48.87;;;;;;;;;;5052085;28;20468;-66
2021/01/26 00:55:26;;;;;;;58.90;48.23;;;;;;;;;;5037239;28;20477;-67
2021/01/26 00:57:53;;;;;;;61.50;48.90;;;;;;;;;;5051546;28;20452;-66
2021/01/26 01:00:21;;;;;;;59.30;46.93;;;;;;;;;;5038497;28;20453;-67
2021/01/26 01:02:47;;;;;;;60.90;49.83;;;;;;;;;;5031950;28;20604;-66
2021/01/26 01:05:15;;;;;;;58.40;47.53;;;;;;;;;;5040947;28;20452;-66
2021/01/26 01:07:42;;;;;;;62.90;48.73;;;;;;;;;;5051642;28;20460;-66
2021/01/26 01:10:10;;;;;;;63.03;48.43;;;;;;;;;;5050949;28;20452;-66
2021/01/26 01:12:36;;;;;;;58.50;48.20;;;;;;;;;;5051371;28;20460;-66
2021/01/26 01:15:03;;;;;;;61.10;48.90;;;;;;;;;;5051885;28;20448;-66
2021/01/26 01:17:30;;;;;;;59.10;46.13;;;;;;;;;;5051969;28;20497;-66
2021/01/26 01:19:57;;;;;;;64.43;50.27;;;;;;;;;;5048301;28;20445;-66
2021/01/26 01:24:52;;;;;;;59.23;48.93;;;;;;;;;;5084787;28;20478;-66
2021/01/26 01:27:19;;;;;;;61.00;48.47;;;;;;;;;;5080299;28;20454;-66
2021/01/26 01:29:46;;;;;;;67.60;52.10;;;;;;;;;;5077922;28;20960;-66
2021/01/26 01:32:12;;;;;;;60.70;48.23;;;;;;;;;;5091709;28;20507;-68
2021/01/26 01:34:39;;;;;;;66.00;51.63;;;;;;;;;;5077275;28;20897;-66
2021/01/26 01:37:05;;;;;;;63.43;49.13;;;;;;;;;;5071692;28;20500;-67
2021/01/26 01:39:32;;;;;;;61.90;50.13;;;;;;;;;;5082958;28;20454;-67
2021/01/26 01:41:59;;;;;;;59.80;49.17;;;;;;;;;;5094286;28;20509;-67
2021/01/26 01:44:26;;;;;;;63.37;48.97;;;;;;;;;;5084020;28;20471;-66
2021/01/26 01:46:54;;;;;;;62.73;50.13;;;;;;;;;;5075419;28;20954;-67
2021/01/26 01:49:22;;;;;;;59.23;49.03;;;;;;;;;;5072076;28;20453;-67
2021/01/26 01:51:49;;;;;;;68.20;53.53;;;;;;;;;;5075285;28;20964;-66
2021/01/26 01:54:17;;;;;;;67.97;53.73;;;;;;;;;;5074814;28;20981;-66
2021/01/26 01:56:45;;;;;;;62.00;50.37;;;;;;;;;;5075324;28;20446;-65
2021/01/26 01:59:14;;;;;;;75.63;52.40;;;;;;;;;;5076158;28;20447;-66
2021/01/26 02:01:41;;;;;;;60.00;47.63;;;;;;;;;;5075160;28;20527;-66
2021/01/26 02:04:09;;;;;;;69.17;53.00;;;;;;;;;;5081979;28;20510;-66
2021/01/26 02:06:38;;;;;;;70.77;53.13;;;;;;;;;;5080168;28;20826;-66
2021/01/26 02:09:06;;;;;;;66.87;52.40;;;;;;;;;;5080431;28;20442;-66
2021/01/26 02:11:32;;;;;;;65.67;51.90;;;;;;;;;;5095298;28;20817;-67
2021/01/26 02:13:59;;;;;;;66.27;51.10;;;;;;;;;;5089860;28;20536;-67
2021/01/26 02:16:33;;;;;;;62.53;47.53;;;;;;;;;;5074240;28;20443;-66
2021/01/26 02:19:08;;;;;;;70.67;52.70;;;;;;;;;;5074626;28;20454;-66
2021/01/26 02:21:54;;;;;;;67.43;51.80;;;;;;;;;;5074437;28;20481;-67
2021/01/26 02:24:34;;;;;;;65.47;50.00;;;;;;;;;;5065369;28;20490;-65
2021/01/26 02:27:19;;;;;;;63.40;51.00;;;;;;;;;;5054615;28;20439;-65
2021/01/26 02:30:10;;;;;;;68.67;50.33;;;;;;;;;;5054285;28;20455;-66
2021/01/26 02:32:46;;;;;;;67.17;51.33;;;;;;;;;;4985272;28;20466;-66
2021/01/26 02:35:19;;;;;;;72.63;52.90;;;;;;;;;;5080578;28;20468;-65
2021/01/26 02:38:05;;;;;;;68.40;50.17;;;;;;;;;;5074285;28;20447;-67
2021/01/26 02:40:36;;;;;;;66.43;50.77;;;;;;;;;;5087519;28;20445;-67
2021/01/26 02:43:13;;;;;;;66.93;51.87;;;;;;;;;;5081754;28;20486;-67
2021/01/26 02:45:41;;;;;;;73.10;53.73;;;;;;;;;;5067071;28;20949;-67
2021/01/26 02:48:23;;;;;;;64.30;51.67;;;;;;;;;;5074361;28;20451;-68
2021/01/26 02:50:52;;;;;;;68.97;52.47;;;;;;;;;;5074271;28;20443;-67
2021/01/26 02:53:23;;;;;;;65.17;51.57;;;;;;;;;;5072551;28;20467;-67
2021/01/26 02:55:54;;;;;;;70.10;52.60;;;;;;;;;;5073977;28;20442;-67
2021/01/26 02:58:24;;;;;;;65.53;48.50;;;;;;;;;;5074836;28;20455;-67
2021/01/26 03:00:54;;;;;;;65.47;51.90;;;;;;;;;;5073365;28;20442;-67
2021/01/26 03:03:24;;;;;;;55.57;46.00;;;;;;;;;;5074443;28;20481;-67
2021/01/26 03:05:53;;;;;;;62.67;51.27;;;;;;;;;;5074074;28;20450;-66
2021/01/26 03:08:22;;;;;;;62.63;51.97;;;;;;;;;;5073233;28;21026;-66
2021/01/26 03:10:54;;;;;;;62.00;50.20;;;;;;;;;;5073713;28;20447;-67
2021/01/26 03:13:21;;;;;;;57.50;48.40;;;;;;;;;;5074258;28;20471;-67
2021/01/26 03:15:51;;;;;;;60.83;47.03;;;;;;;;;;5073956;28;20851;-66
2021/01/26 03:18:22;;;;;;;57.90;48.17;;;;;;;;;;5090604;28;20449;-66
2021/01/26 03:20:52;;;;;;;56.50;45.40;;;;;;;;;;5075147;28;20455;-66
2021/01/26 03:23:22;;;;;;;57.13;47.40;;;;;;;;;;5088799;28;20509;-68
2021/01/26 03:25:52;;;;;;;56.70;47.20;;;;;;;;;;5053584;28;20455;-66
2021/01/26 03:28:20;;;;;;;59.53;48.60;;;;;;;;;;5077582;28;21006;-66
2021/01/26 03:30:49;;;;;;;61.77;48.73;;;;;;;;;;5073608;28;20455;-66
2021/01/26 03:33:19;;;;;;;62.63;47.10;;;;;;;;;;5088553;28;20477;-66
2021/01/26 03:35:45;;;;;;;62.87;47.30;;;;;;;;;;5093727;28;20449;-67
2021/01/26 03:38:14;;;;;;;59.90;47.23;;;;;;;;;;5078438;28;20963;-65
2021/01/26 03:40:41;;;;;;;51.83;43.83;;;;;;;;;;5078198;28;20443;-67
2021/01/26 03:43:08;;;;;;;62.53;47.30;;;;;;;;;;5074169;28;20890;-67
2021/01/26 03:45:35;;;;;;;61.00;49.27;;;;;;;;;;5053228;28;20444;-66
2021/01/26 03:48:11;;;;;;;59.27;49.00;;;;;;;;;;5080511;28;20515;-67
2021/01/26 03:50:46;;;;;;;56.20;45.80;;;;;;;;;;5092940;28;20441;-68
2021/01/26 03:53:31;;;;;;;61.70;48.53;;;;;;;;;;5078313;28;20470;-66
2021/01/26 03:56:02;;;;;;;55.60;46.60;;;;;;;;;;5073262;28;20453;-67
2021/01/26 03:58:39;;;;;;;53.40;45.70;;;;;;;;;;5087259;28;20450;-65
2021/01/26 04:01:10;;;;;;;56.43;45.37;;;;;;;;;;5076748;28;20473;-68
2021/01/26 04:03:48;;;;;;;59.03;46.60;;;;;;;;;;5072909;28;20485;-66
2021/01/26 04:06:20;;;;;;;58.70;52.53;;;;;;;;;;5072879;28;20450;-66
2021/01/26 04:08:49;;;;;;;59.70;53.53;;;;;;;;;;5090101;28;20453;-66
2021/01/26 04:11:18;;;;;;;59.03;52.63;;;;;;;;;;5092956;28;20442;-66
2021/01/26 04:13:49;;;;;;;58.97;52.20;;;;;;;;;;5075508;28;20477;-66
2021/01/26 04:16:17;;;;;;;59.77;53.53;;;;;;;;;;5072089;28;20443;-66
2021/01/26 04:18:45;;;;;;;59.90;53.50;;;;;;;;;;5072309;28;20450;-68
2021/01/26 04:21:12;;;;;;;60.47;54.03;;;;;;;;;;5072486;28;20486;-66
2021/01/26 04:23:39;;;;;;;63.13;55.87;;;;;;;;;;5071731;28;20482;-67
2021/01/26 04:26:07;;;;;;;60.47;53.77;;;;;;;;;;5072895;28;20504;-66
2021/01/26 04:28:39;;;;;;;60.83;54.13;;;;;;;;;;5072221;28;20825;-66
2021/01/26 04:31:07;;;;;;;65.93;57.13;;;;;;;;;;5092040;28;20465;-66
2021/01/26 04:33:33;;;;;;;63.37;56.53;;;;;;;;;;5078863;28;20478;-66
2021/01/26 04:36:00;;;;;;;61.80;55.20;;;;;;;;;;5072559;28;20447;-65
2021/01/26 04:38:27;;;;;;;60.60;54.17;;;;;;;;;;5072185;28;20469;-67
2021/01/26 04:40:54;;;;;;;59.93;53.33;;;;;;;;;;5072121;28;20823;-67
2021/01/26 04:43:26;;;;;;;58.50;52.40;;;;;;;;;;5080468;28;20474;-66
2021/01/26 04:46:00;;;;;;;60.60;54.33;;;;;;;;;;5072143;28;20833;-68
2021/01/26 04:48:30;;;;;;;61.70;54.80;;;;;;;;;;5071661;28;20452;-65
2021/01/26 04:50:58;;;;;;;65.00;57.87;;;;;;;;;;5072060;28;20479;-66
2021/01/26 04:53:35;;;;;;;62.23;55.40;;;;;;;;;;5072243;28;20973;-66
2021/01/26 04:56:05;;;;;;;61.90;55.40;;;;;;;;;;5081131;28;20454;-67
2021/01/26 04:58:36;;;;;;;60.73;54.37;;;;;;;;;;5097555;28;20823;-67
2021/01/26 05:01:09;;;;;;;60.93;54.37;;;;;;;;;;5088930;28;20954;-69
2021/01/26 05:03:42;;;;;;;63.53;56.60;;;;;;;;;;5076967;28;20492;-67
2021/01/26 05:06:12;;;;;;;61.30;54.70;;;;;;;;;;5079714;28;20828;-66
2021/01/26 05:08:40;;;;;;;62.07;55.00;;;;;;;;;;5084171;28;20451;-66
2021/01/26 05:11:09;;;;;;;62.23;55.57;;;;;;;;;;5078595;28;20822;-66
2021/01/26 05:13:39;;;;;;;62.50;53.43;;;;;;;;;;5092041;28;20489;-66
2021/01/26 05:16:07;;;;;;;63.17;56.27;;;;;;;;;;5083884;28;20455;-68
2021/01/26 05:18:37;;;;;;;59.40;53.10;;;;;;;;;;5071291;28;20466;-67
2021/01/26 05:21:07;;;;;;;67.47;55.67;;;;;;;;;;5071902;28;20477;-66
2021/01/26 05:23:37;;;;;;;63.47;56.57;;;;;;;;;;5071438;28;20479;-65
2021/01/26 05:26:04;;;;;;;62.70;54.10;;;;;;;;;;5084318;28;20849;-65
2021/01/26 05:28:30;;;;;;;63.23;55.20;;;;;;;;;;5086951;28;20501;-66
2021/01/26 05:31:05;;;;;;;61.27;54.37;;;;;;;;;;5082440;28;20476;-66
2021/01/26 05:33:32;;;;;;;66.13;56.90;;;;;;;;;;5091908;28;20590;-66
2021/01/26 05:35:59;;;;;;;66.57;57.23;;;;;;;;;;5080504;28;20516;-66
2021/01/26 05:38:27;;;;;;;64.17;56.93;;;;;;;;;;5089449;28;20450;-65
2021/01/26 05:40:54;;;;;;;70.73;59.53;;;;;;;;;;5090929;28;20446;-66
2021/01/26 05:43:23;;;;;;;74.70;60.57;;;;;;;;;;5089601;28;20485;-66
2021/01/26 05:45:52;;;;;;;67.37;59.63;;;;;;;;;;5077413;28;20454;-66
2021/01/26 05:48:21;;;;;;;72.67;62.00;;;;;;;;;;5091767;28;20449;-67
2021/01/26 05:50:48;;;;;;;69.37;60.07;;;;;;;;;;5083434;28;20462;-66
2021/01/26 05:53:16;;;;;;;69.40;61.70;;;;;;;;;;5073995;28;20473;-66
2021/01/26 05:55:57;;;;;;;70.50;62.47;;;;;;;;;;5091470;28;20945;-67
2021/01/26 05:58:26;;;;;;;70.47;61.90;;;;;;;;;;5087651;28;20459;-67
2021/01/26 06:00:56;;;;;;;71.53;63.17;;;;;;;;;;5071363;28;20454;-67
2021/01/26 06:03:23;;;;;;;66.63;59.33;;;;;;;;;;5073827;28;20970;-67
2021/01/26 06:06:00;;;;;;;72.37;61.00;;;;;;;;;;5072262;28;20857;-67
2021/01/26 06:08:26;;;;;;;78.43;62.90;;;;;;;;;;5072142;28;20447;-65
2021/01/26 06:10:54;;;;;;;74.10;64.80;;;;;;;;;;5071535;28;20443;-67
2021/01/26 06:13:24;;;;;;;42.63;32.63;;;;;;;;;;5074238;28;20469;-65
2021/01/26 06:16:06;;;;;;;73.23;65.23;;;;;;;;;;5091542;28;20457;-66
2021/01/26 06:18:33;;;;;;;76.17;64.87;;;;;;;;;;5086242;28;20453;-66
2021/01/26 06:21:04;;;;;;;71.90;62.57;;;;;;;;;;5071066;28;20443;-67
2021/01/26 06:23:32;;;;;;;72.80;63.70;;;;;;;;;;5071765;28;20523;-65
2021/01/26 06:26:00;;;;;;;77.13;63.53;;;;;;;;;;5055799;28;20467;-65
2021/01/26 06:28:33;;;;;;;75.50;64.90;;;;;;;;;;5055011;28;20973;-66
2021/01/26 06:31:00;;;;;;;72.37;63.70;;;;;;;;;;5074670;28;20442;-67
2021/01/26 06:33:45;;;;;;;81.20;66.33;;;;;;;;;;5073832;28;20473;-66
2021/01/26 06:36:16;;;;;;;73.67;64.63;;;;;;;;;;5061335;28;20467;-67
2021/01/26 06:39:02;;;;;;;76.57;66.23;;;;;;;;;;5077863;28;20810;-66
2021/01/26 06:41:35;;;;;;;75.10;66.87;;;;;;;;;;5094704;28;20576;-66
2021/01/26 06:44:09;;;;;;;75.00;65.53;;;;;;;;;;5092739;28;20484;-66
2021/01/26 06:46:42;;;;;;;74.33;62.43;;;;;;;;;;5075736;28;20491;-67
2021/01/26 06:49:21;;;;;;;78.93;65.57;;;;;;;;;;5075062;28;20942;-66
2021/01/26 06:52:02;;;;;;;76.57;68.27;;;;;;;;;;5073751;28;20848;-67
2021/01/26 06:54:37;;;;;;;72.43;64.27;;;;;;;;;;5084948;28;20969;-66
2021/01/26 06:57:14;;;;;;;73.50;63.90;;;;;;;;;;5082170;28;20446;-67
2021/01/26 07:00:05;;;;;;;75.00;64.90;;;;;;;;;;5086060;28;20449;-66
2021/01/26 07:03:04;;;;;;;74.00;65.37;;;;;;;;;;5094294;28;20477;-66
2021/01/26 07:05:46;;;;;;;80.20;64.93;;;;;;;;;;5059127;28;20470;-67
2021/01/26 07:08:30;;;;;;;73.07;62.70;;;;;;;;;;5001723;28;20456;-66
2021/01/26 07:11:12;;;;;;;73.57;62.47;;;;;;;;;;5074301;28;20867;-66
2021/01/26 07:13:44;;;;;;;19.57;12.13;;;;;;;;;;5077138;28;20484;-70
2021/01/26 07:16:25;;;;;;;13.90;10.60;;;;;;;;;;5067091;28;20982;-70
2021/01/26 07:19:00;;;;;;;14.87;13.27;;;;;;;;;;5063956;28;20468;-76
2021/01/26 07:21:33;;;;;;;14.30;12.90;;;;;;;;;;5064301;28;20480;-68
2021/01/26 07:26:46;;;;;;;13.73;12.40;;;;;;;;;;5051067;28;21069;-70
2021/01/26 07:29:24;;;;;;;13.70;12.50;;;;;;;;;;5051487;28;20513;-71
2021/01/26 07:31:54;;;;;;;12.67;11.57;;;;;;;;;;5052951;28;20821;-70
2021/01/26 07:34:23;;;;;;;13.90;12.70;;;;;;;;;;5048933;28;20967;-70
2021/01/26 07:36:54;;;;;;;12.67;11.47;;;;;;;;;;5033383;28;20821;-70
2021/01/26 07:39:24;;;;;;;12.33;11.23;;;;;;;;;;5017690;28;20460;-70
2021/01/26 07:41:55;;;;;;;12.97;11.77;;;;;;;;;;5021718;28;20474;-71
2021/01/26 07:44:25;;;;;;;11.37;10.37;;;;;;;;;;5031368;28;20518;-70
2021/01/26 07:46:53;;;;;;;11.80;10.70;;;;;;;;;;5032902;28;20475;-71
2021/01/26 07:49:22;;;;;;;11.57;10.63;;;;;;;;;;5033064;28;20456;-70
2021/01/26 07:51:52;;;;;;;11.23;10.30;;;;;;;;;;5032905;28;20831;-70
2021/01/26 07:54:20;;;;;;;12.67;11.13;;;;;;;;;;5032584;28;20526;-70
2021/01/26 07:56:47;;;;;;;11.53;10.53;;;;;;;;;;5032662;28;20498;-71
2021/01/26 07:59:15;;;;;;;12.07;10.97;;;;;;;;;;5032649;28;20455;-70
2021/01/26 08:01:45;;;;;;;13.20;11.90;;;;;;;;;;5032925;28;20705;-70
2021/01/26 08:04:12;;;;;;;12.30;11.20;;;;;;;;;;5026653;28;20478;-70
2021/01/26 08:06:56;;;;;;;12.90;11.60;;;;;;;;;;5032518;28;20547;-70
2021/01/26 08:09:25;;;;;;;13.40;12.20;;;;;;;;;;5016261;28;20539;-70
2021/01/26 08:11:56;;;;;;;12.17;11.17;;;;;;;;;;5032999;28;20454;-70
2021/01/26 08:14:30;;;;;;;14.03;12.77;;;;;;;;;;5033220;28;20526;-70
2021/01/26 08:16:58;;;;;;;13.20;11.80;;;;;;;;;;5032491;28;20456;-71
2021/01/26 08:19:27;;;;;;;14.00;12.70;;;;;;;;;;5032141;28;20482;-70
2021/01/26 08:21:55;;;;;;;15.13;13.70;;;;;;;;;;5016599;28;20485;-70
2021/01/26 08:24:33;;;;;;;13.50;12.17;;;;;;;;;;5033556;28;20479;-72
2021/01/26 08:27:14;;;;;;;14.87;13.33;;;;;;;;;;5013713;28;20452;-70
2021/01/26 08:29:54;;;;;;;16.77;13.93;;;;;;;;;;5025749;28;20441;-70
2021/01/26 08:32:39;;;;;;;15.73;14.23;;;;;;;;;;5032277;28;20487;-70
2021/01/26 08:35:08;;;;;;;15.37;13.80;;;;;;;;;;5031789;28;20465;-69
2021/01/26 08:37:46;;;;;;;13.57;12.27;;;;;;;;;;5029381;28;20495;-69
2021/01/26 08:40:13;;;;;;;14.17;12.87;;;;;;;;;;5027585;28;20998;-70
2021/01/26 08:42:54;;;;;;;13.50;12.30;;;;;;;;;;5031939;28;20560;-69
2021/01/26 08:45:47;;;;;;;12.90;11.70;;;;;;;;;;5028957;28;20486;-69
2021/01/26 08:48:22;;;;;;;13.33;12.13;;;;;;;;;;5031215;28;21013;-69
2021/01/26 08:51:03;;;;;;;13.27;12.17;;;;;;;;;;5031136;28;20448;-71
2021/01/26 08:53:34;;;;;;;12.60;11.53;;;;;;;;;;5029830;28;20457;-69
2021/01/26 08:56:02;;;;;;;12.43;11.20;;;;;;;;;;5029709;28;20488;-69
2021/01/26 08:58:39;;;;;;;12.23;11.07;;;;;;;;;;5030994;28;20502;-69
2021/01/26 09:01:06;;;;;;;11.53;10.43;;;;;;;;;;5030883;28;20818;-69
2021/01/26 09:03:35;;;;;;;12.30;11.20;;;;;;;;;;5030051;28;20539;-69
2021/01/26 09:06:04;;;;;;;12.90;11.80;;;;;;;;;;5031826;28;20473;-70
2021/01/26 09:08:48;;;;;;;11.50;10.50;;;;;;;;;;5030486;28;20468;-69
2021/01/26 09:11:16;;;;;;;13.47;12.17;;;;;;;;;;5028827;28;20548;-69
2021/01/26 09:13:44;;;;;;;12.23;11.13;;;;;;;;;;5028365;28;20460;-69
2021/01/26 09:16:13;;;;;;;13.40;12.17;;;;;;;;;;5032021;28;20488;-69
2021/01/26 09:18:40;;;;;;;12.73;11.63;;;;;;;;;;5030170;28;20441;-69
2021/01/26 09:21:12;;;;;;;11.70;10.70;;;;;;;;;;5023751;28;20469;-68
2021/01/26 09:23:40;;;;;;;31.67;15.30;;;;;;;;;;5014597;28;20602;-65
2021/01/26 09:26:10;;;;;;;39.90;36.60;;;;;;;;;;5029976;28;20488;-63
2021/01/26 09:28:39;;;;;;;41.20;37.30;;;;;;;;;;5029229;28;20884;-63
2021/01/26 09:31:06;;;;;;;41.10;37.10;;;;;;;;;;5029497;28;20456;-63
2021/01/26 09:33:33;;;;;;;42.07;38.17;;;;;;;;;;5031882;28;20452;-63
2021/01/26 09:36:08;;;;;;;44.33;40.20;;;;;;;;;;5031283;28;20897;-63
2021/01/26 09:38:37;;;;;;;45.20;40.90;;;;;;;;;;5030815;28;20882;-63
2021/01/26 09:41:05;;;;;;;43.10;38.77;;;;;;;;;;5030785;28;20463;-63
2021/01/26 09:43:34;;;;;;;44.77;40.37;;;;;;;;;;5031607;28;20502;-63
2021/01/26 09:46:02;;;;;;;44.80;40.37;;;;;;;;;;5029994;28;20852;-63
2021/01/26 09:48:34;;;;;;;45.27;40.97;;;;;;;;;;5011840;28;20449;-63
2021/01/26 09:51:02;;;;;;;45.43;41.10;;;;;;;;;;5027568;28;20503;-62
2021/01/26 09:53:29;;;;;;;42.20;38.10;;;;;;;;;;5031796;28;20964;-63
2021/01/26 09:55:56;;;;;;;42.87;39.07;;;;;;;;;;5016922;28;20474;-63
2021/01/26 09:58:23;;;;;;;41.57;37.67;;;;;;;;;;5031902;28;20462;-63
2021/01/26 10:00:50;;;;;;;41.90;38.00;;;;;;;;;;5030943;28;20964;-62
2021/01/26 10:03:20;;;;;;;40.40;36.50;;;;;;;;;;5033946;28;20490;-63
2021/01/26 10:05:47;;;;;;;40.63;36.83;;;;;;;;;;5037098;28;20503;-64
2021/01/26 10:08:14;;;;;;;40.33;36.40;;;;;;;;;;5035081;28;20452;-62
2021/01/26 10:10:41;;;;;;;41.10;37.13;;;;;;;;;;5035126;28;20443;-63
2021/01/26 10:13:22;;;;;;;37.97;34.30;;;;;;;;;;5031597;28;20450;-63
2021/01/26 10:15:49;;;;;;;35.27;31.97;;;;;;;;;;5017401;28;20465;-64
2021/01/26 10:18:17;;;;;;;35.30;32.00;;;;;;;;;;5034765;28;20463;-64
2021/01/26 10:20:55;;;;;;;26.00;22.70;;;;;;;;;;5034432;28;20498;-65
2021/01/26 10:23:27;;;;;;;35.20;32.07;;;;;;;;;;5033865;28;21046;-63
2021/01/26 10:25:54;;;;;;;36.07;32.77;;;;;;;;;;5034295;28;20998;-63
2021/01/26 10:28:24;;;;;;;32.03;29.10;;;;;;;;;;5034668;28;20449;-66
2021/01/26 10:30:51;;;;;;;30.07;27.37;;;;;;;;;;5031693;28;20471;-68
2021/01/26 10:33:33;;;;;;;25.60;23.40;;;;;;;;;;5034253;28;20453;-68
2021/01/26 10:36:19;;;;;;;24.60;22.13;;;;;;;;;;5034283;28;20476;-69
2021/01/26 10:38:46;;;;;;;24.13;22.03;;;;;;;;;;5043300;28;20451;-69
2021/01/26 10:41:14;;;;;;;22.37;20.47;;;;;;;;;;5044246;28;20694;-68
2021/01/26 10:43:42;;;;;;;21.90;20.10;;;;;;;;;;5049509;28;20499;-68
2021/01/26 10:46:11;;;;;;;23.83;21.80;;;;;;;;;;5033670;28;20483;-68
2021/01/26 10:48:42;;;;;;;22.20;20.10;;;;;;;;;;5032740;28;20461;-68
2021/01/26 10:51:11;;;;;;;20.80;19.07;;;;;;;;;;5033501;28;20492;-68
2021/01/26 10:53:39;;;;;;;21.13;18.83;;;;;;;;;;5032972;28;20452;-68
2021/01/26 10:56:06;;;;;;;20.00;18.30;;;;;;;;;;5032151;28;20495;-69
2021/01/26 10:58:32;;;;;;;9.00;8.20;;;;;;;;;;5032463;28;20982;-69
2021/01/26 11:01:00;;;;;;;17.50;15.80;;;;;;;;;;5032633;28;20469;-69
2021/01/26 11:03:26;;;;;;;18.13;16.63;;;;;;;;;;5031441;28;20519;-69
2021/01/26 11:05:53;;;;;;;16.90;15.60;;;;;;;;;;5030652;28;20537;-69
2021/01/26 11:08:20;;;;;;;17.97;16.30;;;;;;;;;;5030940;28;20460;-69
2021/01/26 11:10:47;;;;;;;17.57;15.97;;;;;;;;;;5032634;28;20962;-69
2021/01/26 11:13:13;;;;;;;16.37;15.07;;;;;;;;;;5030865;28;20477;-69
2021/01/26 11:15:40;;;;;;;18.30;16.80;;;;;;;;;;5030357;28;20519;-70
2021/01/26 11:18:08;;;;;;;17.70;16.20;;;;;;;;;;5031986;28;20464;-68
2021/01/26 11:20:35;;;;;;;17.93;16.30;;;;;;;;;;5037718;28;20853;-68
2021/01/26 11:23:02;;;;;;;18.57;17.07;;;;;;;;;;5031308;28;21005;-68
2021/01/26 11:25:28;;;;;;;20.63;18.73;;;;;;;;;;5027972;28;20493;-69
2021/01/26 11:27:55;;;;;;;19.40;17.70;;;;;;;;;;5032833;28;20469;-68
2021/01/26 11:30:23;;;;;;;20.80;19.10;;;;;;;;;;5018623;28;20472;-68
2021/01/26 11:32:49;;;;;;;17.87;16.33;;;;;;;;;;5015275;28;20465;-68
2021/01/26 11:35:21;;;;;;;19.33;17.73;;;;;;;;;;5032249;28;20488;-67
2021/01/26 11:37:47;;;;;;;19.63;17.93;;;;;;;;;;5032644;28;20959;-67
2021/01/26 11:40:15;;;;;;;18.17;16.57;;;;;;;;;;5032617;28;20499;-68
2021/01/26 11:42:42;;;;;;;18.07;16.47;;;;;;;;;;5031420;28;20488;-68
2021/01/26 11:45:10;;;;;;;17.30;15.83;;;;;;;;;;5031951;28;20480;-68
2021/01/26 11:47:36;;;;;;;18.83;17.23;;;;;;;;;;5032815;28;20456;-68
2021/01/26 11:50:04;;;;;;;17.10;15.60;;;;;;;;;;5031166;28;20465;-69
2021/01/26 11:52:32;;;;;;;18.33;16.73;;;;;;;;;;5033113;28;20441;-67
2021/01/26 11:54:58;;;;;;;19.07;17.40;;;;;;;;;;5028893;28;20999;-68
2021/01/26 11:57:25;;;;;;;19.67;17.83;;;;;;;;;;5030727;28;20461;-67
2021/01/26 11:59:51;;;;;;;19.83;18.13;;;;;;;;;;5032038;28;20461;-68
2021/01/26 12:02:18;;;;;;;4.70;3.93;;;;;;;;;;5031823;28;20579;-68
2021/01/26 12:04:45;;;;;;;3.80;2.97;;;;;;;;;;5032087;28;20476;-68
2021/01/26 12:07:11;;;;;;;3.37;2.87;;;;;;;;;;5032157;28;20448;-69
2021/01/26 12:09:39;;;;;;;3.67;2.40;;;;;;;;;;5031722;28;20471;-69
2021/01/26 12:12:06;;;;;;;3.33;2.40;;;;;;;;;;5031502;28;20464;-69
2021/01/26 12:14:32;;;;;;;2.70;2.40;;;;;;;;;;5031112;28;20493;-69
2021/01/26 12:16:59;;;;;;;4.13;1.80;;;;;;;;;;5032051;28;20832;-69
2021/01/26 12:19:27;;;;;;;3.90;2.30;;;;;;;;;;5032025;28;20456;-70
2021/01/26 12:21:54;;;;;;;2.63;2.37;;;;;;;;;;5030131;28;20468;-70
2021/01/26 12:24:20;;;;;;;5.73;5.13;;;;;;;;;;5030830;28;20491;-69
2021/01/26 12:26:48;;;;;;;5.00;2.50;;;;;;;;;;5029118;28;20469;-69
2021/01/26 12:29:14;;;;;;;4.33;2.73;;;;;;;;;;5029380;28;20517;-69
2021/01/26 12:31:41;;;;;;;4.97;2.50;;;;;;;;;;5032105;28;21026;-69
2021/01/26 12:34:08;;;;;;;3.40;2.60;;;;;;;;;;5031086;28;20465;-69
2021/01/26 12:36:34;;;;;;;4.63;3.17;;;;;;;;;;5032300;28;20449;-69
2021/01/26 12:39:01;;;;;;;4.17;2.93;;;;;;;;;;5029130;28;20963;-69
2021/01/26 12:41:28;;;;;;;9.83;3.73;;;;;;;;;;5031580;28;20467;-69
2021/01/26 12:43:55;;;;;;;5.80;3.77;;;;;;;;;;5029930;28;20480;-70
2021/01/26 12:46:22;;;;;;;7.23;4.93;;;;;;;;;;5031997;28;20445;-69
2021/01/26 12:48:48;;;;;;;7.67;5.40;;;;;;;;;;5031845;28;20453;-69
2021/01/26 12:51:15;;;;;;;6.80;5.23;;;;;;;;;;5030863;28;20975;-69
2021/01/26 12:53:42;;;;;;;11.37;10.37;;;;;;;;;;5033667;28;20464;-68
2021/01/26 12:56:08;;;;;;;12.43;11.40;;;;;;;;;;5027642;28;20488;-68
2021/01/26 12:58:35;;;;;;;11.60;10.70;;;;;;;;;;5029498;28;20463;-68
2021/01/26 13:01:03;;;;;;;11.10;10.10;;;;;;;;;;5031623;28;20453;-67
2021/01/26 13:03:29;;;;;;;11.70;10.70;;;;;;;;;;5029883;28;20492;-67
2021/01/26 13:05:56;;;;;;;10.63;9.73;;;;;;;;;;5031288;28;21069;-67
2021/01/26 13:08:23;;;;;;;12.43;11.30;;;;;;;;;;5021219;28;21094;-67
2021/01/26 13:10:49;;;;;;;10.87;9.97;;;;;;;;;;5031386;28;20452;-68
2021/01/26 13:13:16;;;;;;;10.97;9.97;;;;;;;;;;5031199;28;20453;-67
2021/01/26 13:15:42;;;;;;;9.03;8.23;;;;;;;;;;5031085;28;20971;-67
2021/01/26 13:18:10;;;;;;;10.20;9.30;;;;;;;;;;5031303;28;20449;-68
2021/01/26 13:20:38;;;;;;;11.07;10.03;;;;;;;;;;5031360;28;20453;-67
2021/01/26 13:23:05;;;;;;;10.50;9.50;;;;;;;;;;5031376;28;20499;-67
2021/01/26 13:25:32;;;;;;;12.03;10.80;;;;;;;;;;5030213;28;20499;-67
2021/01/26 13:27:59;;;;;;;9.53;8.63;;;;;;;;;;5056904;22;20488;-65
2021/01/26 13:30:26;;;;;;;7.70;7.00;;;;;;;;;;5050771;28;20464;-65
2021/01/26 13:32:53;;;;;;;7.37;6.67;;;;;;;;;;5051139;28;20550;-66
2021/01/26 13:35:23;;;;;;;5.50;5.00;;;;;;;;;;5052007;28;20871;-64
2021/01/26 13:37:50;;;;;;;4.40;4.00;;;;;;;;;;5053797;28;20517;-65
2021/01/26 13:40:17;;;;;;;4.37;4.07;;;;;;;;;;5055506;28;20509;-65
2021/01/26 13:42:44;;;;;;;8.03;3.40;;;;;;;;;;5053632;28;20852;-65
2021/01/26 13:45:11;;;;;;;5.10;3.70;;;;;;;;;;5062746;28;20450;-64
2021/01/26 13:47:38;;;;;;;3.77;3.47;;;;;;;;;;5068733;28;20492;-63
2021/01/26 13:50:06;;;;;;;2.80;2.60;;;;;;;;;;5068356;28;20487;-65
2021/01/26 13:52:33;;;;;;;2.53;2.33;;;;;;;;;;5070118;28;20444;-64
2021/01/26 13:55:00;;;;;;;3.80;2.17;;;;;;;;;;5064158;28;20448;-63
2021/01/26 13:57:27;;;;;;;2.70;2.50;;;;;;;;;;5066483;28;20523;-63
2021/01/26 13:59:53;;;;;;;4.93;2.40;;;;;;;;;;5059159;28;20471;-63
2021/01/26 14:02:20;;;;;;;3.23;2.93;;;;;;;;;;5055660;28;20720;-65
2021/01/26 14:04:46;;;;;;;3.23;2.93;;;;;;;;;;5063195;28;20452;-63
2021/01/26 14:07:13;;;;;;;2.83;2.63;;;;;;;;;;5064795;28;20468;-63
2021/01/26 14:09:41;;;;;;;2.90;2.60;;;;;;;;;;5054348;28;20475;-63
2021/01/26 14:12:08;;;;;;;6.00;3.10;;;;;;;;;;5047303;28;20469;-65
2021/01/26 14:14:35;;;;;;;4.73;3.20;;;;;;;;;;5036946;28;20452;-63
2021/01/26 14:17:02;;;;;;;4.03;3.00;;;;;;;;;;5037548;28;20449;-65
2021/01/26 14:19:29;;;;;;;3.57;2.70;;;;;;;;;;5035725;28;20498;-64
2021/01/26 14:21:56;;;;;;;4.83;2.63;;;;;;;;;;5035337;28;21025;-63
2021/01/26 14:24:23;;;;;;;4.90;2.53;;;;;;;;;;5042835;28;20856;-63
2021/01/26 14:26:50;;;;;;;3.90;3.23;;;;;;;;;;5053742;28;20463;-64
2021/01/26 14:29:17;;;;;;;2.53;2.33;;;;;;;;;;5059501;28;20466;-63
2021/01/26 14:31:43;;;;;;;4.10;3.03;;;;;;;;;;5054928;28;20824;-63
2021/01/26 14:34:10;;;;;;;4.10;2.70;;;;;;;;;;5055580;28;20447;-63
2021/01/26 14:36:37;;;;;;;3.60;3.03;;;;;;;;;;5052622;28;20456;-63
2021/01/26 14:39:04;;;;;;;3.10;2.80;;;;;;;;;;5053122;28;20998;-64
2021/01/26 14:41:30;;;;;;;3.87;3.07;;;;;;;;;;5059873;28;20444;-64